Terminal Aerodrome Forecast
Issued by NWS Mt. Holly, NJ

Home | Current Version | Previous Version | Text Only | Print | Product List | Glossary On
Versions: 1 2 3 4 5 6 7 8 9 10 11 12 13 14 15 16 17 18 19 20 21
000
FTUS41 KPHI 300521
TAFTTN
TAF
KTTN 300521Z 3006/3106 19005KT 6SM BR SCT012 BKN250
     FM300900 VRB02KT 3SM BR BKN009
     FM301200 21006KT P6SM BKN015
     FM301400 20009KT P6SM SCT025
     FM301700 21011G19KT P6SM SCT045
     FM310000 20008KT P6SM SCT035 BKN060=

USA.gov is the U.S. government's official web portal to all federal, state and local government web resources and services.